Hauptseite
METAR-TAF:

METAR-TAF

Flughäfen :

Base Aérea de Armilla

Granada, Spanien

Breite: 37-08N, Länge: 003-38-08W, Höhe: 700 m

Beobachtung

Neuester Wetterbericht von vor 12 Stunden und 58 Minuten, um 13:00 UTC
Wind 4 kt aus Nordwest
Temperatur 10°C
Luftfeuchtigkeit 46%
Luftdruck 1015 hPa
Sichtweite 10 km oder mehr
keine Wolken unter 1500 m und keine Kumulonimbus oder Gewitterwolken

METAR: LEGA 161300Z 32004KT CAVOK 10/M01 Q1015

Zeit: 02:58 (01:58 UTC)

Prognose

Neuester Wetterbericht von vor 11 Stunden und 58 Minuten, um 14:00 UTC
Gültige Prognose vom 15 um 15 UTC bis 15 um 24 UTC
Wind 6 kt aus Nordwest
Sichtweite 10 km oder mehr
Aufgelockert bewölkt in der Höhe von 2000 ft
Durchbrochene Bewölkung in der Höhe von 4500 ft

TAF: LEGA 151400Z 1515/1524 32006KT 9999 SCT020 BKN045

Wetterbeobachtungen und Prognosen von mehr als 4000 Flughäfen (METAR und TAF Bericht).

Die verfügbaren Stationen werden durch gelbe und rote Markierungen auf der Karte dargestellt.

Führen Sie die Maus auf sie, um den Namen der Station zu sehen.

Darauf klicken, um die Beobachtung von Wetterbeobachtungen und Prognosen zu sehen.

Um die Karte zu ändern : klicken Sie auf den grünen Tasten mit einem schwarzen Kreuz Zum Vergrößern, auf den grünen Button mit einem Gedankenstrich zu verkleinern, oder auf die grünen Pfeile für benachbarte Karten.


METAR-TAF: